Aeroporto :
LOGIN :

Iscrizione | Disclaimer

   EN    FR    IT 

 










Sommario :    VFR   VFR Marginale   IFR   IFR Intensivo   IFR Molto Intensivo
Visibilità : 
Base nubi : 
>= 8 km
>= 3000ft
5 / 8 km
1000 / 3000 ft
1500m / 5 km
500 / 1000 ft
800 / 1500m
200 / 500 ft
< 800m
< 200 ft
Simboli :   Temporali  Nebbia  Neve Forte  Precipitazioni Forti  Vento > 20 kt
SIGMETs :   Varie  Temporali  Ghiacco  Turbolenza  Onda orograficha  Ceneri Vulcaniche







- Altitudine del aeroporto : 62 ft
- Codice IATA : TAN


GMTT - Tanger Ibn Batouta

ULTIMO METAR :
  • 181600Z 10024G34KT 9999 FEW016 31/18 Q1010 NOSIG

METARs OBSOLETI :
  • 181530Z 10025KT 9999 FEW016 31/17 Q1011 NOSIG
  • 181500Z 10024KT 9999 FEW016 32/17 Q1011 NOSIG
  • 181430Z 09020G30KT 9999 FEW016 32/17 Q1011 NOSIG
  • 181400Z 09020KT 9999 FEW016 33/16 Q1011 NOSIG
  • 181330Z 10023KT 9999 FEW016 32/17 Q1012 NOSIG

TAF TAF GMTT
Valido dal 18 a 12 ore il 19 a 18 ore UTC


181100Z 1812/1918 09026G38KT 9999 FEW016
Nessun NOTAM noto per questo aeroporto.
1 SIGMET conosciuto per la FIR Casablanca (GMMM) :
 
Temporali affogati
GMMM SIGMET A1 VALID 181500/181900 GMMC
GMMM CASABLANCA FIR EMBD TS FCST E OF LINE N3435 W00145 - N3357 W00 429 - N3237 W00601 - N3200 N00252 TOP FL240 STNR INTSF=



MetMap, La meteo Aeronautica in un colpo d'occhio ! - Copyright ORBIFLY Dicembre 2007 - Disclaimer

ORBIFLY MET'MAP TEAM :

Programmazione e sviluppo : Alexandra Zaïnal
Concezione e sviluppo : Baudouin d'Aumeries
Co-Programmazione e sviluppo : Marc-Olivier Méhu
Supporto tecnico e logistico : Manuel Goepfert
Aiuto per la traduzione : Arnaldo La Scala

Contatto : metmap@orbifly.com




FONTI E CREDITI :

   NOAA